sensor_id;sensor_type;location;lat;lon;timestamp;pressure;altitude;pressure_sealevel;temperature;humidity
11856;BME280;5987;53.140;8.904;2023-02-04T00:00:13;102864.47;;;3.47;100.00
11856;BME280;5987;53.140;8.904;2023-02-04T00:03:17;102877.44;;;3.45;100.00
11856;BME280;5987;53.140;8.904;2023-02-04T00:06:22;102868.69;;;3.43;100.00
11856;BME280;5987;53.140;8.904;2023-02-04T00:09:26;102873.72;;;3.35;100.00
11856;BME280;5987;53.140;8.904;2023-02-04T00:12:29;102884.72;;;3.25;100.00
11856;BME280;5987;53.140;8.904;2023-02-04T00:15:33;102880.09;;;3.15;100.00
11856;BME280;5987;53.140;8.904;2023-02-04T00:18:37;102892.16;;;3.13;100.00
11856;BME280;5987;53.140;8.904;2023-02-04T00:21:42;102908.34;;;3.04;100.00
11856;BME280;5987;53.140;8.904;2023-02-04T00:24:45;102909.00;;;2.97;100.00
11856;BME280;5987;53.140;8.904;2023-02-04T00:27:51;102904.66;;;2.96;100.00
11856;BME280;5987;53.140;8.904;2023-02-04T00:30:55;102923.50;;;2.88;100.00
11856;BME280;5987;53.140;8.904;2023-02-04T00:33:59;102933.88;;;2.88;100.00
11856;BME280;5987;53.140;8.904;2023-02-04T00:37:04;102952.66;;;2.81;100.00
11856;BME280;5987;53.140;8.904;2023-02-04T00:40:10;102962.88;;;2.75;100.00
11856;BME280;5987;53.140;8.904;2023-02-04T00:43:13;102965.38;;;2.72;100.00
11856;BME280;5987;53.140;8.904;2023-02-04T00:46:17;102964.34;;;2.67;100.00
11856;BME280;5987;53.140;8.904;2023-02-04T00:49:21;102979.94;;;2.68;100.00
11856;BME280;5987;53.140;8.904;2023-02-04T00:52:26;102975.38;;;2.60;100.00
11856;BME280;5987;53.140;8.904;2023-02-04T00:55:30;102977.88;;;2.56;100.00
11856;BME280;5987;53.140;8.904;2023-02-04T00:58:33;102984.63;;;2.51;100.00
11856;BME280;5987;53.140;8.904;2023-02-04T01:01:38;102981.94;;;2.48;100.00
11856;BME280;5987;53.140;8.904;2023-02-04T01:04:41;102993.06;;;2.46;100.00
11856;BME280;5987;53.140;8.904;2023-02-04T01:07:46;103000.63;;;2.38;100.00
11856;BME280;5987;53.140;8.904;2023-02-04T01:10:50;103014.13;;;2.29;100.00
11856;BME280;5987;53.140;8.904;2023-02-04T01:13:54;103014.78;;;2.22;100.00
11856;BME280;5987;53.140;8.904;2023-02-04T01:16:57;103020.81;;;2.21;100.00
11856;BME280;5987;53.140;8.904;2023-02-04T01:20:01;103032.06;;;2.21;100.00
11856;BME280;5987;53.140;8.904;2023-02-04T01:23:06;103044.19;;;2.22;100.00
11856;BME280;5987;53.140;8.904;2023-02-04T01:26:10;103045.09;;;2.25;100.00
11856;BME280;5987;53.140;8.904;2023-02-04T01:29:14;103050.19;;;2.21;100.00
11856;BME280;5987;53.140;8.904;2023-02-04T01:32:17;103045.09;;;2.25;100.00
11856;BME280;5987;53.140;8.904;2023-02-04T01:35:21;103052.78;;;2.21;100.00
11856;BME280;5987;53.140;8.904;2023-02-04T01:38:26;103072.41;;;2.15;100.00
11856;BME280;5987;53.140;8.904;2023-02-04T01:41:30;103085.94;;;2.06;100.00
11856;BME280;5987;53.140;8.904;2023-02-04T01:44:35;103084.06;;;2.02;100.00
11856;BME280;5987;53.140;8.904;2023-02-04T01:47:39;103089.19;;;2.00;100.00
11856;BME280;5987;53.140;8.904;2023-02-04T01:50:43;103080.63;;;2.01;100.00
11856;BME280;5987;53.140;8.904;2023-02-04T01:53:48;103094.19;;;1.94;100.00
11856;BME280;5987;53.140;8.904;2023-02-04T01:56:52;103107.84;;;1.90;100.00
11856;BME280;5987;53.140;8.904;2023-02-04T01:59:56;103113.75;;;1.86;100.00
11856;BME280;5987;53.140;8.904;2023-02-04T02:03:00;103106.63;;;1.80;100.00
11856;BME280;5987;53.140;8.904;2023-02-04T02:06:08;103110.09;;;1.81;100.00
11856;BME280;5987;53.140;8.904;2023-02-04T02:09:14;103121.31;;;1.81;100.00
11856;BME280;5987;53.140;8.904;2023-02-04T02:12:18;103133.00;;;1.70;100.00
11856;BME280;5987;53.140;8.904;2023-02-04T02:15:22;103143.91;;;1.61;100.00
11856;BME280;5987;53.140;8.904;2023-02-04T02:18:26;103162.91;;;1.62;100.00
11856;BME280;5987;53.140;8.904;2023-02-04T02:21:34;103178.50;;;1.41;100.00
11856;BME280;5987;53.140;8.904;2023-02-04T02:24:42;103197.97;;;1.31;100.00
11856;BME280;5987;53.140;8.904;2023-02-04T02:27:45;103187.53;;;1.29;100.00
11856;BME280;5987;53.140;8.904;2023-02-04T02:30:50;103191.03;;;1.30;100.00
11856;BME280;5987;53.140;8.904;2023-02-04T02:33:54;103202.66;;;1.18;100.00
11856;BME280;5987;53.140;8.904;2023-02-04T02:36:59;103205.94;;;1.14;100.00
11856;BME280;5987;53.140;8.904;2023-02-04T02:40:07;103213.38;;;1.07;100.00
11856;BME280;5987;53.140;8.904;2023-02-04T02:43:14;103230.91;;;0.93;100.00
11856;BME280;5987;53.140;8.904;2023-02-04T02:46:19;103237.72;;;0.91;100.00
11856;BME280;5987;53.140;8.904;2023-02-04T02:49:23;103239.34;;;0.89;100.00
11856;BME280;5987;53.140;8.904;2023-02-04T02:52:28;103244.41;;;0.85;100.00
11856;BME280;5987;53.140;8.904;2023-02-04T02:55:33;103244.28;;;0.82;100.00
11856;BME280;5987;53.140;8.904;2023-02-04T02:58:37;103255.44;;;0.81;100.00
11856;BME280;5987;53.140;8.904;2023-02-04T03:01:41;103248.66;;;0.64;100.00
11856;BME280;5987;53.140;8.904;2023-02-04T03:04:50;103254.50;;;0.60;100.00
11856;BME280;5987;53.140;8.904;2023-02-04T03:07:54;103261.91;;;0.52;100.00
11856;BME280;5987;53.140;8.904;2023-02-04T03:11:00;103256.84;;;0.54;100.00
11856;BME280;5987;53.140;8.904;2023-02-04T03:14:04;103257.66;;;0.53;100.00
11856;BME280;5987;53.140;8.904;2023-02-04T03:17:10;103255.94;;;0.53;100.00
11856;BME280;5987;53.140;8.904;2023-02-04T03:20:15;103263.25;;;0.42;100.00
11856;BME280;5987;53.140;8.904;2023-02-04T03:23:19;103270.50;;;0.51;100.00
11856;BME280;5987;53.140;8.904;2023-02-04T03:26:25;103273.97;;;0.51;100.00
11856;BME280;5987;53.140;8.904;2023-02-04T03:29:29;103272.19;;;0.50;100.00
11856;BME280;5987;53.140;8.904;2023-02-04T03:32:33;103266.03;;;0.47;100.00
11856;BME280;5987;53.140;8.904;2023-02-04T03:35:37;103274.75;;;0.31;100.00
11856;BME280;5987;53.140;8.904;2023-02-04T03:38:40;103272.13;;;0.29;100.00
11856;BME280;5987;53.140;8.904;2023-02-04T03:41:45;103287.56;;;0.28;100.00
11856;BME280;5987;53.140;8.904;2023-02-04T03:44:49;103303.34;;;0.34;100.00
11856;BME280;5987;53.140;8.904;2023-02-04T03:47:52;103301.63;;;0.34;100.00
11856;BME280;5987;53.140;8.904;2023-02-04T03:50:56;103308.03;;;0.43;100.00
11856;BME280;5987;53.140;8.904;2023-02-04T03:54:00;103308.53;;;0.34;100.00
11856;BME280;5987;53.140;8.904;2023-02-04T03:57:05;103320.00;;;0.21;100.00
11856;BME280;5987;53.140;8.904;2023-02-04T04:00:10;103327.09;;;0.07;100.00
11856;BME280;5987;53.140;8.904;2023-02-04T04:03:14;103332.28;;;0.07;100.00
11856;BME280;5987;53.140;8.904;2023-02-04T04:06:17;103338.25;;;0.06;100.00
11856;BME280;5987;53.140;8.904;2023-02-04T04:09:21;103337.25;;;0.04;100.00
11856;BME280;5987;53.140;8.904;2023-02-04T04:12:26;103329.31;;;-0.01;100.00
11856;BME280;5987;53.140;8.904;2023-02-04T04:15:30;103339.09;;;0.07;100.00
11856;BME280;5987;53.140;8.904;2023-02-04T04:18:34;103343.69;;;0.12;100.00
11856;BME280;5987;53.140;8.904;2023-02-04T04:21:38;103346.66;;;0.02;100.00
11856;BME280;5987;53.140;8.904;2023-02-04T04:24:41;103357.19;;;0.07;100.00
11856;BME280;5987;53.140;8.904;2023-02-04T04:27:46;103363.47;;;-0.06;100.00
11856;BME280;5987;53.140;8.904;2023-02-04T04:30:50;103365.63;;;-0.15;100.00
11856;BME280;5987;53.140;8.904;2023-02-04T04:33:53;103374.63;;;-0.25;100.00
11856;BME280;5987;53.140;8.904;2023-02-04T04:36:57;103383.03;;;-0.29;100.00
11856;BME280;5987;53.140;8.904;2023-02-04T04:40:01;103395.84;;;-0.31;100.00
11856;BME280;5987;53.140;8.904;2023-02-04T04:43:06;103407.50;;;-0.39;100.00
11856;BME280;5987;53.140;8.904;2023-02-04T04:46:09;103413.06;;;-0.48;100.00
11856;BME280;5987;53.140;8.904;2023-02-04T04:49:13;103417.69;;;-0.59;100.00
11856;BME280;5987;53.140;8.904;2023-02-04T04:52:17;103422.41;;;-0.50;100.00
11856;BME280;5987;53.140;8.904;2023-02-04T04:55:21;103427.97;;;-0.42;100.00
11856;BME280;5987;53.140;8.904;2023-02-04T04:58:26;103442.06;;;-0.36;100.00
11856;BME280;5987;53.140;8.904;2023-02-04T05:01:29;103442.84;;;-0.55;100.00
11856;BME280;5987;53.140;8.904;2023-02-04T05:04:33;103448.44;;;-0.45;100.00
11856;BME280;5987;53.140;8.904;2023-02-04T05:07:37;103459.75;;;-0.43;100.00
11856;BME280;5987;53.140;8.904;2023-02-04T05:10:41;103453.78;;;-0.42;100.00
11856;BME280;5987;53.140;8.904;2023-02-04T05:13:46;103450.22;;;-0.44;100.00
11856;BME280;5987;53.140;8.904;2023-02-04T05:16:50;103452.31;;;-0.37;100.00
11856;BME280;5987;53.140;8.904;2023-02-04T05:19:54;103457.63;;;-0.34;100.00
11856;BME280;5987;53.140;8.904;2023-02-04T05:22:57;103466.03;;;-0.38;100.00
11856;BME280;5987;53.140;8.904;2023-02-04T05:26:02;103467.16;;;-0.49;100.00
11856;BME280;5987;53.140;8.904;2023-02-04T05:29:07;103479.28;;;-0.48;100.00
11856;BME280;5987;53.140;8.904;2023-02-04T05:32:12;103466.38;;;-0.48;100.00
11856;BME280;5987;53.140;8.904;2023-02-04T05:35:16;103472.09;;;-0.54;100.00
11856;BME280;5987;53.140;8.904;2023-02-04T05:38:19;103480.72;;;-0.54;100.00
11856;BME280;5987;53.140;8.904;2023-02-04T05:41:23;103485.56;;;-0.60;100.00
11856;BME280;5987;53.140;8.904;2023-02-04T05:44:28;103487.50;;;-0.56;100.00
11856;BME280;5987;53.140;8.904;2023-02-04T05:47:32;103484.69;;;-0.60;100.00
11856;BME280;5987;53.140;8.904;2023-02-04T05:50:35;103483.72;;;-0.62;100.00
11856;BME280;5987;53.140;8.904;2023-02-04T05:53:39;103482.91;;;-0.61;100.00
11856;BME280;5987;53.140;8.904;2023-02-04T05:56:43;103493.00;;;-0.66;100.00
11856;BME280;5987;53.140;8.904;2023-02-04T05:59:48;103492.34;;;-0.62;100.00
11856;BME280;5987;53.140;8.904;2023-02-04T06:02:51;103504.50;;;-0.43;100.00
11856;BME280;5987;53.140;8.904;2023-02-04T06:05:55;103515.47;;;-0.30;100.00
11856;BME280;5987;53.140;8.904;2023-02-04T06:08:59;103520.38;;;-0.19;100.00
11856;BME280;5987;53.140;8.904;2023-02-04T06:12:03;103513.97;;;-0.09;100.00
11856;BME280;5987;53.140;8.904;2023-02-04T06:15:09;103522.78;;;-0.05;100.00
11856;BME280;5987;53.140;8.904;2023-02-04T06:18:14;103535.78;;;-0.04;100.00
11856;BME280;5987;53.140;8.904;2023-02-04T06:21:18;103542.53;;;-0.06;100.00
11856;BME280;5987;53.140;8.904;2023-02-04T06:24:21;103553.28;;;0.02;100.00
11856;BME280;5987;53.140;8.904;2023-02-04T06:27:25;103549.81;;;0.02;100.00
11856;BME280;5987;53.140;8.904;2023-02-04T06:30:30;103550.84;;;-0.11;100.00
11856;BME280;5987;53.140;8.904;2023-02-04T06:33:35;103553.00;;;-0.21;100.00
11856;BME280;5987;53.140;8.904;2023-02-04T06:36:38;103557.19;;;-0.39;100.00
11856;BME280;5987;53.140;8.904;2023-02-04T06:39:42;103562.00;;;-0.45;100.00
11856;BME280;5987;53.140;8.904;2023-02-04T06:42:46;103553.31;;;-0.47;100.00
11856;BME280;5987;53.140;8.904;2023-02-04T06:45:51;103550.66;;;-0.49;100.00
11856;BME280;5987;53.140;8.904;2023-02-04T06:48:54;103563.22;;;-0.39;100.00
11856;BME280;5987;53.140;8.904;2023-02-04T06:51:58;103567.84;;;-0.33;100.00
11856;BME280;5987;53.140;8.904;2023-02-04T06:55:02;103580.25;;;-0.26;100.00
11856;BME280;5987;53.140;8.904;2023-02-04T06:58:06;103593.09;;;-0.27;100.00
11856;BME280;5987;53.140;8.904;2023-02-04T07:01:11;103592.06;;;-0.31;100.00
11856;BME280;5987;53.140;8.904;2023-02-04T07:04:14;103601.63;;;-0.28;100.00
11856;BME280;5987;53.140;8.904;2023-02-04T07:07:18;103609.44;;;-0.27;100.00
11856;BME280;5987;53.140;8.904;2023-02-04T07:10:22;103611.94;;;-0.28;100.00
11856;BME280;5987;53.140;8.904;2023-02-04T07:13:26;103619.78;;;-0.27;100.00
11856;BME280;5987;53.140;8.904;2023-02-04T07:16:31;103625.69;;;-0.29;100.00
11856;BME280;5987;53.140;8.904;2023-02-04T07:19:35;103626.72;;;-0.26;100.00
11856;BME280;5987;53.140;8.904;2023-02-04T07:22:38;103631.09;;;-0.25;100.00
11856;BME280;5987;53.140;8.904;2023-02-04T07:25:43;103627.28;;;-0.31;100.00
11856;BME280;5987;53.140;8.904;2023-02-04T07:28:47;103646.34;;;-0.29;100.00
11856;BME280;5987;53.140;8.904;2023-02-04T07:31:52;103628.50;;;-0.25;100.00
11856;BME280;5987;53.140;8.904;2023-02-04T07:34:56;103633.66;;;-0.25;100.00
11856;BME280;5987;53.140;8.904;2023-02-04T07:38:00;103628.34;;;-0.28;100.00
11856;BME280;5987;53.140;8.904;2023-02-04T07:41:04;103633.97;;;-0.19;100.00
11856;BME280;5987;53.140;8.904;2023-02-04T07:44:08;103639.00;;;-0.22;100.00
11856;BME280;5987;53.140;8.904;2023-02-04T07:47:14;103652.56;;;-0.09;100.00
11856;BME280;5987;53.140;8.904;2023-02-04T07:50:17;103661.91;;;-0.11;100.00
11856;BME280;5987;53.140;8.904;2023-02-04T07:53:21;103659.03;;;-0.01;100.00
11856;BME280;5987;53.140;8.904;2023-02-04T07:56:25;103662.41;;;-0.02;100.00
11856;BME280;5987;53.140;8.904;2023-02-04T07:59:29;103662.72;;;0.04;100.00
11856;BME280;5987;53.140;8.904;2023-02-04T08:02:38;103664.03;;;-0.04;100.00
11856;BME280;5987;53.140;8.904;2023-02-04T08:05:43;103661.53;;;-0.03;100.00
11856;BME280;5987;53.140;8.904;2023-02-04T08:08:47;103667.56;;;-0.02;100.00
11856;BME280;5987;53.140;8.904;2023-02-04T08:11:51;103670.47;;;0.04;100.00
11856;BME280;5987;53.140;8.904;2023-02-04T08:14:54;103676.94;;;0.12;100.00
11856;BME280;5987;53.140;8.904;2023-02-04T08:18:00;103687.53;;;0.17;100.00
11856;BME280;5987;53.140;8.904;2023-02-04T08:21:04;103679.59;;;0.14;100.00
11856;BME280;5987;53.140;8.904;2023-02-04T08:24:08;103687.75;;;0.22;100.00
11856;BME280;5987;53.140;8.904;2023-02-04T08:27:11;103697.25;;;0.39;100.00
11856;BME280;5987;53.140;8.904;2023-02-04T08:30:16;103704.22;;;0.40;100.00
11856;BME280;5987;53.140;8.904;2023-02-04T08:33:21;103695.97;;;0.47;100.00
11856;BME280;5987;53.140;8.904;2023-02-04T08:36:25;103706.88;;;0.42;100.00
11856;BME280;5987;53.140;8.904;2023-02-04T08:39:29;103705.81;;;0.55;100.00
11856;BME280;5987;53.140;8.904;2023-02-04T08:42:34;103711.47;;;0.64;100.00
11856;BME280;5987;53.140;8.904;2023-02-04T08:45:54;103717.47;;;0.81;100.00
11856;BME280;5987;53.140;8.904;2023-02-04T08:48:59;103719.34;;;0.83;100.00
11856;BME280;5987;53.140;8.904;2023-02-04T08:52:03;103723.94;;;0.89;100.00
11856;BME280;5987;53.140;8.904;2023-02-04T08:55:09;103731.50;;;1.20;100.00
11856;BME280;5987;53.140;8.904;2023-02-04T08:58:13;103728.78;;;1.35;100.00
11856;BME280;5987;53.140;8.904;2023-02-04T09:01:16;103733.19;;;1.56;100.00
11856;BME280;5987;53.140;8.904;2023-02-04T09:04:23;103734.53;;;1.66;100.00
11856;BME280;5987;53.140;8.904;2023-02-04T09:07:27;103742.97;;;1.62;100.00
11856;BME280;5987;53.140;8.904;2023-02-04T09:10:31;103744.97;;;1.67;100.00
11856;BME280;5987;53.140;8.904;2023-02-04T09:13:35;103744.88;;;1.66;100.00
11856;BME280;5987;53.140;8.904;2023-02-04T09:16:39;103753.75;;;1.71;100.00
11856;BME280;5987;53.140;8.904;2023-02-04T09:19:44;103759.69;;;1.68;100.00
11856;BME280;5987;53.140;8.904;2023-02-04T09:22:48;103760.03;;;1.94;100.00
11856;BME280;5987;53.140;8.904;2023-02-04T09:25:52;103756.31;;;2.07;100.00
11856;BME280;5987;53.140;8.904;2023-02-04T09:29:01;103755.63;;;2.11;100.00
11856;BME280;5987;53.140;8.904;2023-02-04T09:32:19;103773.81;;;2.31;100.00
11856;BME280;5987;53.140;8.904;2023-02-04T09:35:24;103768.19;;;2.41;100.00
11856;BME280;5987;53.140;8.904;2023-02-04T09:38:28;103770.19;;;2.47;100.00
11856;BME280;5987;53.140;8.904;2023-02-04T09:41:33;103767.78;;;2.51;100.00
11856;BME280;5987;53.140;8.904;2023-02-04T09:44:37;103771.78;;;2.45;100.00
11856;BME280;5987;53.140;8.904;2023-02-04T09:47:41;103769.75;;;2.37;100.00
11856;BME280;5987;53.140;8.904;2023-02-04T09:50:48;103771.66;;;2.42;100.00
11856;BME280;5987;53.140;8.904;2023-02-04T09:53:53;103778.84;;;2.47;100.00
11856;BME280;5987;53.140;8.904;2023-02-04T09:56:58;103782.72;;;2.57;100.00
11856;BME280;5987;53.140;8.904;2023-02-04T10:00:04;103773.44;;;2.43;100.00
11856;BME280;5987;53.140;8.904;2023-02-04T10:03:15;103776.47;;;2.52;100.00
11856;BME280;5987;53.140;8.904;2023-02-04T10:06:22;103788.66;;;2.54;100.00
11856;BME280;5987;53.140;8.904;2023-02-04T10:09:26;103794.19;;;2.43;100.00
11856;BME280;5987;53.140;8.904;2023-02-04T10:12:30;103794.63;;;2.52;100.00
11856;BME280;5987;53.140;8.904;2023-02-04T10:15:34;103798.06;;;2.33;100.00
11856;BME280;5987;53.140;8.904;2023-02-04T10:18:39;103807.91;;;2.40;100.00
11856;BME280;5987;53.140;8.904;2023-02-04T10:21:45;103812.41;;;2.44;100.00
11856;BME280;5987;53.140;8.904;2023-02-04T10:24:48;103809.41;;;2.54;100.00
11856;BME280;5987;53.140;8.904;2023-02-04T10:27:55;103809.69;;;2.61;100.00
11856;BME280;5987;53.140;8.904;2023-02-04T10:30:59;103802.03;;;2.44;100.00
11856;BME280;5987;53.140;8.904;2023-02-04T10:34:13;103805.56;;;2.85;100.00
11856;BME280;5987;53.140;8.904;2023-02-04T10:37:21;103800.31;;;2.84;100.00
11856;BME280;5987;53.140;8.904;2023-02-04T10:40:28;103800.31;;;2.84;100.00
11856;BME280;5987;53.140;8.904;2023-02-04T10:43:33;103802.81;;;3.02;100.00
11856;BME280;5987;53.140;8.904;2023-02-04T10:46:37;103809.63;;;3.19;100.00
11856;BME280;5987;53.140;8.904;2023-02-04T10:49:47;103821.78;;;3.01;100.00
11856;BME280;5987;53.140;8.904;2023-02-04T10:52:58;103810.97;;;3.31;100.00
11856;BME280;5987;53.140;8.904;2023-02-04T10:56:20;103819.16;;;3.20;100.00
11856;BME280;5987;53.140;8.904;2023-02-04T10:59:25;103814.63;;;3.36;100.00
11856;BME280;5987;53.140;8.904;2023-02-04T11:02:42;103805.38;;;3.42;100.00
11856;BME280;5987;53.140;8.904;2023-02-04T11:05:48;103790.19;;;3.31;100.00
11856;BME280;5987;53.140;8.904;2023-02-04T11:08:53;103797.63;;;3.44;100.00
11856;BME280;5987;53.140;8.904;2023-02-04T11:11:57;103793.81;;;3.57;100.00
11856;BME280;5987;53.140;8.904;2023-02-04T11:15:02;103785.78;;;3.72;100.00
11856;BME280;5987;53.140;8.904;2023-02-04T11:18:10;103791.56;;;3.65;100.00
11856;BME280;5987;53.140;8.904;2023-02-04T11:21:22;103800.16;;;3.64;100.00
11856;BME280;5987;53.140;8.904;2023-02-04T11:24:32;103794.38;;;3.71;100.00
11856;BME280;5987;53.140;8.904;2023-02-04T11:27:38;103802.31;;;3.53;100.00
11856;BME280;5987;53.140;8.904;2023-02-04T11:30:42;103792.28;;;3.39;100.00
11856;BME280;5987;53.140;8.904;2023-02-04T11:33:47;103801.81;;;3.62;100.00
11856;BME280;5987;53.140;8.904;2023-02-04T11:37:27;103794.50;;;3.74;100.00
11856;BME280;5987;53.140;8.904;2023-02-04T11:40:40;103791.19;;;3.78;100.00
11856;BME280;5987;53.140;8.904;2023-02-04T11:43:44;103785.66;;;3.91;100.00
11856;BME280;5987;53.140;8.904;2023-02-04T11:46:50;103796.75;;;3.65;100.00
11856;BME280;5987;53.140;8.904;2023-02-04T11:49:58;103796.41;;;3.57;100.00
11856;BME280;5987;53.140;8.904;2023-02-04T11:53:04;103793.91;;;3.81;100.00
11856;BME280;5987;53.140;8.904;2023-02-04T11:56:16;103807.09;;;3.86;100.00
11856;BME280;5987;53.140;8.904;2023-02-04T11:59:20;103805.69;;;3.94;100.00
11856;BME280;5987;53.140;8.904;2023-02-04T12:02:24;103804.44;;;3.84;100.00
11856;BME280;5987;53.140;8.904;2023-02-04T12:05:42;103814.44;;;3.96;100.00
11856;BME280;5987;53.140;8.904;2023-02-04T12:08:48;103813.56;;;3.95;100.00
11856;BME280;5987;53.140;8.904;2023-02-04T12:11:56;103811.28;;;4.05;100.00
11856;BME280;5987;53.140;8.904;2023-02-04T12:15:13;103807.28;;;4.13;100.00
11856;BME280;5987;53.140;8.904;2023-02-04T12:18:17;103809.88;;;4.13;100.00
11856;BME280;5987;53.140;8.904;2023-02-04T12:21:21;103811.53;;;4.34;100.00
11856;BME280;5987;53.140;8.904;2023-02-04T12:24:25;103815.91;;;4.12;100.00
11856;BME280;5987;53.140;8.904;2023-02-04T12:27:30;103825.03;;;4.23;100.00
11856;BME280;5987;53.140;8.904;2023-02-04T12:30:33;103821.53;;;4.47;100.00
11856;BME280;5987;53.140;8.904;2023-02-04T12:33:37;103822.50;;;4.49;100.00
11856;BME280;5987;53.140;8.904;2023-02-04T12:36:41;103824.13;;;4.47;100.00
11856;BME280;5987;53.140;8.904;2023-02-04T12:39:44;103825.66;;;4.40;100.00
11856;BME280;5987;53.140;8.904;2023-02-04T12:42:49;103833.00;;;4.28;100.00
11856;BME280;5987;53.140;8.904;2023-02-04T12:45:53;103818.94;;;4.47;100.00
11856;BME280;5987;53.140;8.904;2023-02-04T12:48:56;103827.69;;;4.49;100.00
11856;BME280;5987;53.140;8.904;2023-02-04T12:52:00;103829.06;;;4.39;100.00
11856;BME280;5987;53.140;8.904;2023-02-04T12:55:06;103816.22;;;4.44;100.00
11856;BME280;5987;53.140;8.904;2023-02-04T12:58:14;103817.72;;;4.37;100.00
11856;BME280;5987;53.140;8.904;2023-02-04T13:01:17;103811.06;;;4.21;100.00
11856;BME280;5987;53.140;8.904;2023-02-04T13:04:21;103805.47;;;4.57;100.00
11856;BME280;5987;53.140;8.904;2023-02-04T13:07:25;103813.31;;;4.35;100.00
11856;BME280;5987;53.140;8.904;2023-02-04T13:10:28;103815.19;;;4.39;100.00
11856;BME280;5987;53.140;8.904;2023-02-04T13:13:33;103814.41;;;4.19;100.00
11856;BME280;5987;53.140;8.904;2023-02-04T13:16:37;103818.63;;;4.15;100.00
11856;BME280;5987;53.140;8.904;2023-02-04T13:19:44;103814.63;;;4.23;100.00
11856;BME280;5987;53.140;8.904;2023-02-04T13:22:47;103816.25;;;4.21;100.00
11856;BME280;5987;53.140;8.904;2023-02-04T13:25:51;103818.84;;;4.44;100.00
11856;BME280;5987;53.140;8.904;2023-02-04T13:28:56;103820.69;;;4.24;100.00
11856;BME280;5987;53.140;8.904;2023-02-04T13:32:00;103827.53;;;4.22;100.00
11856;BME280;5987;53.140;8.904;2023-02-04T13:35:04;103827.69;;;4.25;100.00
11856;BME280;5987;53.140;8.904;2023-02-04T13:38:08;103834.56;;;4.24;100.00
11856;BME280;5987;53.140;8.904;2023-02-04T13:41:12;103839.53;;;4.41;100.00
11856;BME280;5987;53.140;8.904;2023-02-04T13:44:17;103834.22;;;4.38;100.00
11856;BME280;5987;53.140;8.904;2023-02-04T13:47:21;103831.78;;;4.42;100.00
11856;BME280;5987;53.140;8.904;2023-02-04T13:50:25;103831.22;;;4.51;100.00
11856;BME280;5987;53.140;8.904;2023-02-04T13:53:28;103833.00;;;4.52;100.00
11856;BME280;5987;53.140;8.904;2023-02-04T13:56:33;103831.22;;;4.51;100.00
11856;BME280;5987;53.140;8.904;2023-02-04T13:59:39;103826.47;;;4.39;100.00
11856;BME280;5987;53.140;8.904;2023-02-04T14:02:42;103831.88;;;4.45;100.00
11856;BME280;5987;53.140;8.904;2023-02-04T14:05:46;103825.97;;;4.74;100.00
11856;BME280;5987;53.140;8.904;2023-02-04T14:08:50;103818.78;;;4.67;100.00
11856;BME280;5987;53.140;8.904;2023-02-04T14:11:53;103836.22;;;4.45;100.00
11856;BME280;5987;53.140;8.904;2023-02-04T14:14:58;103831.22;;;4.51;100.00
11856;BME280;5987;53.140;8.904;2023-02-04T14:18:02;103832.75;;;4.44;100.00
11856;BME280;5987;53.140;8.904;2023-02-04T14:21:06;103830.81;;;4.39;100.00
11856;BME280;5987;53.140;8.904;2023-02-04T14:24:10;103836.47;;;4.28;100.00
11856;BME280;5987;53.140;8.904;2023-02-04T14:27:14;103837.44;;;4.31;100.00
11856;BME280;5987;53.140;8.904;2023-02-04T14:30:23;103832.56;;;4.17;100.00
11856;BME280;5987;53.140;8.904;2023-02-04T14:33:28;103837.38;;;4.29;100.00
11856;BME280;5987;53.140;8.904;2023-02-04T14:36:32;103846.16;;;4.33;100.00
11856;BME280;5987;53.140;8.904;2023-02-04T14:39:35;103844.03;;;4.22;100.00
11856;BME280;5987;53.140;8.904;2023-02-04T14:42:39;103846.44;;;4.18;100.00
11856;BME280;5987;53.140;8.904;2023-02-04T14:45:44;103844.03;;;4.22;100.00
11856;BME280;5987;53.140;8.904;2023-02-04T14:48:48;103849.91;;;4.17;100.00
11856;BME280;5987;53.140;8.904;2023-02-04T14:51:53;103850.22;;;4.03;100.00
11856;BME280;5987;53.140;8.904;2023-02-04T14:54:58;103848.78;;;4.10;100.00
11856;BME280;5987;53.140;8.904;2023-02-04T14:58:02;103847.09;;;4.12;100.00
11856;BME280;5987;53.140;8.904;2023-02-04T15:01:07;103855.75;;;4.11;100.00
11856;BME280;5987;53.140;8.904;2023-02-04T15:04:11;103848.78;;;4.10;100.00
11856;BME280;5987;53.140;8.904;2023-02-04T15:07:15;103856.34;;;4.04;100.00
11856;BME280;5987;53.140;8.904;2023-02-04T15:10:19;103856.72;;;3.92;100.00
11856;BME280;5987;53.140;8.904;2023-02-04T15:13:24;103855.75;;;4.11;100.00
11856;BME280;5987;53.140;8.904;2023-02-04T15:16:30;103859.69;;;4.01;100.00
11856;BME280;5987;53.140;8.904;2023-02-04T15:19:34;103850.88;;;3.98;100.00
11856;BME280;5987;53.140;8.904;2023-02-04T15:22:38;103855.72;;;3.88;100.00
11856;BME280;5987;53.140;8.904;2023-02-04T15:25:42;103850.22;;;3.81;100.00
11856;BME280;5987;53.140;8.904;2023-02-04T15:28:45;103847.72;;;3.84;100.00
11856;BME280;5987;53.140;8.904;2023-02-04T15:31:51;103842.25;;;3.76;100.00
11856;BME280;5987;53.140;8.904;2023-02-04T15:34:55;103843.88;;;3.74;100.00
11856;BME280;5987;53.140;8.904;2023-02-04T15:37:58;103843.94;;;3.75;100.00
11856;BME280;5987;53.140;8.904;2023-02-04T15:41:05;103847.06;;;3.67;100.00
11856;BME280;5987;53.140;8.904;2023-02-04T15:44:09;103840.84;;;3.63;100.00
11856;BME280;5987;53.140;8.904;2023-02-04T15:47:15;103845.03;;;3.59;100.00
11856;BME280;5987;53.140;8.904;2023-02-04T15:50:19;103844.50;;;3.47;100.00
11856;BME280;5987;53.140;8.904;2023-02-04T15:53:22;103845.28;;;3.44;100.00
11856;BME280;5987;53.140;8.904;2023-02-04T15:56:26;103846.88;;;3.41;100.00
11856;BME280;5987;53.140;8.904;2023-02-04T15:59:30;103858.75;;;3.36;100.00
11856;BME280;5987;53.140;8.904;2023-02-04T16:02:35;103853.44;;;3.33;100.00
11856;BME280;5987;53.140;8.904;2023-02-04T16:05:39;103855.63;;;3.23;100.00
11856;BME280;5987;53.140;8.904;2023-02-04T16:08:42;103853.34;;;3.10;100.00
11856;BME280;5987;53.140;8.904;2023-02-04T16:11:46;103850.28;;;2.99;100.00
11856;BME280;5987;53.140;8.904;2023-02-04T16:14:50;103849.16;;;2.92;100.00